Time;durP1;ratioP1;P1;durP2;ratioP2;P2;SDS_P1;SDS_P2;PMS_P1;PMS_P2;Temp;Humidity;BMP_temperature;BMP_pressure;BME280_temperature;BME280_humidity;BME280_pressure;Samples;Min_cycle;Max_cycle;Signal;HPM_P1;HPM_P2
2021/01/18 00:01:40;;;;;;;0.00;0.00;;;;;;;;;;4990185;28;20199;-67
2021/01/18 00:04:07;;;;;;;0.00;0.00;;;;;;;;;;4993355;28;20226;-68
2021/01/18 00:06:34;;;;;;;0.00;0.00;;;;;;;;;;4995440;28;20194;-69
2021/01/18 00:09:01;;;;;;;0.00;0.00;;;;;;;;;;4990684;28;20196;-69
2021/01/18 00:11:28;;;;;;;0.00;0.00;;;;;;;;;;4993383;28;20196;-69
2021/01/18 00:13:54;;;;;;;0.00;0.00;;;;;;;;;;4987386;28;20227;-68
2021/01/18 00:16:22;;;;;;;0.00;0.00;;;;;;;;;;4988738;28;20200;-69
2021/01/18 00:18:48;;;;;;;0.00;0.00;;;;;;;;;;4991113;28;20219;-69
2021/01/18 00:21:15;;;;;;;0.00;0.00;;;;;;;;;;4992029;28;20468;-69
2021/01/18 00:23:44;;;;;;;0.00;0.00;;;;;;;;;;4992111;28;20220;-69
2021/01/18 00:26:11;;;;;;;0.00;0.00;;;;;;;;;;4990871;28;20479;-68
2021/01/18 00:28:38;;;;;;;0.00;0.00;;;;;;;;;;4992602;28;20193;-66
2021/01/18 00:31:05;;;;;;;0.00;0.00;;;;;;;;;;4992076;28;20273;-65
2021/01/18 14:12:26;;;;;;;0.93;0.40;;;;;;;;;;5090416;28;20577;-62
2021/01/18 14:14:53;;;;;;;0.37;0.37;;;;;;;;;;5069959;28;20190;-63
2021/01/18 14:17:23;;;;;;;0.17;0.17;;;;;;;;;;5074334;28;20206;-62
2021/01/18 14:19:50;;;;;;;0.27;0.27;;;;;;;;;;5075744;28;20178;-61
2021/01/18 14:22:18;;;;;;;0.10;0.10;;;;;;;;;;5075378;28;20186;-58
2021/01/18 14:24:44;;;;;;;3.13;0.40;;;;;;;;;;5077246;28;20227;-58
2021/01/18 14:27:11;;;;;;;0.10;0.10;;;;;;;;;;5077226;28;20210;-60
2021/01/18 14:29:38;;;;;;;7.70;0.57;;;;;;;;;;5075092;28;20202;-61
2021/01/18 14:32:05;;;;;;;2.30;0.30;;;;;;;;;;5072738;28;20173;-61
2021/01/18 14:34:32;;;;;;;1.50;0.40;;;;;;;;;;5078482;28;20689;-64
2021/01/18 14:37:13;;;;;;;0.10;0.10;;;;;;;;;;5083096;28;20723;-61
2021/01/18 14:39:56;;;;;;;1.27;0.73;;;;;;;;;;5075346;28;20181;-61
2021/01/18 14:48:45;;;;;;;0.20;0.20;;;;;;;;;;5070074;28;20236;-59
2021/01/18 14:51:30;;;;;;;0.83;0.20;;;;;;;;;;5085876;28;20182;-60
2021/01/18 14:54:32;;;;;;;0.10;0.10;;;;;;;;;;5080148;28;20184;-59
2021/01/18 15:05:59;;;;;;;0.10;0.10;;;;;;;;;;5086232;28;20177;-63
2021/01/18 15:08:26;;;;;;;0.30;0.30;;;;;;;;;;5074762;28;20732;-61
2021/01/18 15:10:52;;;;;;;1.90;1.80;;;;;;;;;;5072410;28;20581;-62
2021/01/18 15:13:19;;;;;;;0.00;0.00;;;;;;;;;;5074392;28;20184;-64
2021/01/18 15:15:47;;;;;;;4.07;0.70;;;;;;;;;;5073808;28;20637;-62
2021/01/18 15:18:13;;;;;;;0.00;0.00;;;;;;;;;;5081062;28;20247;-62
2021/01/18 15:20:40;;;;;;;0.10;0.10;;;;;;;;;;5057613;28;20209;-61
2021/01/18 15:23:07;;;;;;;0.20;0.20;;;;;;;;;;5058154;28;20186;-62
2021/01/18 15:25:33;;;;;;;0.00;0.00;;;;;;;;;;5051664;28;20928;-62
2021/01/18 15:28:01;;;;;;;0.40;0.40;;;;;;;;;;5054072;28;20718;-61
2021/01/18 15:30:27;;;;;;;0.00;0.00;;;;;;;;;;5056483;28;20252;-63
2021/01/18 15:32:54;;;;;;;0.30;0.10;;;;;;;;;;5061991;28;20608;-60
2021/01/18 15:35:22;;;;;;;0.30;0.27;;;;;;;;;;5060445;28;20190;-62
2021/01/18 15:37:53;;;;;;;0.00;0.00;;;;;;;;;;5058629;28;20190;-63
2021/01/18 15:40:21;;;;;;;0.03;0.03;;;;;;;;;;5057495;28;20187;-63
2021/01/18 15:42:47;;;;;;;0.37;0.30;;;;;;;;;;5062596;28;20269;-61
2021/01/18 15:45:14;;;;;;;0.00;0.00;;;;;;;;;;5055119;28;20190;-62
2021/01/18 15:47:41;;;;;;;0.97;0.13;;;;;;;;;;5062308;28;20287;-62
2021/01/18 15:50:08;;;;;;;0.07;0.07;;;;;;;;;;5063074;28;20180;-60
2021/01/18 15:52:35;;;;;;;0.00;0.00;;;;;;;;;;5058083;28;20238;-60
2021/01/18 15:55:01;;;;;;;0.73;0.50;;;;;;;;;;5052020;28;20961;-62
2021/01/18 15:57:28;;;;;;;0.00;0.00;;;;;;;;;;5065042;28;20198;-64
2021/01/18 15:59:54;;;;;;;0.10;0.10;;;;;;;;;;5063861;28;20198;-60
2021/01/18 16:02:23;;;;;;;4.10;0.67;;;;;;;;;;5058593;28;20182;-62
2021/01/18 16:04:50;;;;;;;0.37;0.37;;;;;;;;;;5054444;28;20187;-62
2021/01/18 16:07:16;;;;;;;0.90;0.50;;;;;;;;;;5058263;28;21046;-61
2021/01/18 16:09:43;;;;;;;0.00;0.00;;;;;;;;;;5056684;28;20187;-62
2021/01/18 16:12:09;;;;;;;0.20;0.20;;;;;;;;;;5057102;28;20505;-63
2021/01/18 16:14:37;;;;;;;3.00;1.27;;;;;;;;;;5059709;28;20202;-61
2021/01/18 16:17:03;;;;;;;2.60;0.40;;;;;;;;;;5058285;28;21705;-61
2021/01/18 16:19:32;;;;;;;0.10;0.10;;;;;;;;;;5056587;28;20192;-61
2021/01/18 16:21:58;;;;;;;0.00;0.00;;;;;;;;;;5060651;28;20199;-65
2021/01/18 16:24:27;;;;;;;0.00;0.00;;;;;;;;;;5056984;28;20279;-61
2021/01/18 16:26:54;;;;;;;0.20;0.20;;;;;;;;;;5051734;28;20178;-62
2021/01/18 16:29:22;;;;;;;0.10;0.10;;;;;;;;;;5060017;28;20218;-63
2021/01/18 16:31:55;;;;;;;0.10;0.10;;;;;;;;;;5041614;28;20185;-62
2021/01/18 16:34:22;;;;;;;0.73;0.10;;;;;;;;;;5056035;28;20190;-64
2021/01/18 16:36:49;;;;;;;0.00;0.00;;;;;;;;;;5053831;28;20200;-64
2021/01/18 16:39:15;;;;;;;0.00;0.00;;;;;;;;;;5059529;28;20196;-62
2021/01/18 16:41:46;;;;;;;0.00;0.00;;;;;;;;;;5069853;28;20188;-63
2021/01/18 16:44:13;;;;;;;3.43;0.83;;;;;;;;;;5054087;28;20538;-64
2021/01/18 16:46:40;;;;;;;0.20;0.20;;;;;;;;;;5056231;28;20178;-63
2021/01/18 16:49:07;;;;;;;0.10;0.10;;;;;;;;;;5054090;28;20306;-63
2021/01/18 16:51:33;;;;;;;4.43;2.10;;;;;;;;;;5052955;28;20645;-64
2021/01/18 16:54:00;;;;;;;0.30;0.30;;;;;;;;;;5054025;28;20265;-63
2021/01/18 16:56:27;;;;;;;0.20;0.20;;;;;;;;;;5051418;28;20187;-61
2021/01/18 16:58:54;;;;;;;0.10;0.10;;;;;;;;;;5055658;28;20176;-64
2021/01/18 17:01:21;;;;;;;0.07;0.07;;;;;;;;;;5057094;28;20258;-62
2021/01/18 17:03:49;;;;;;;0.00;0.00;;;;;;;;;;5058663;28;20199;-59
2021/01/18 17:06:17;;;;;;;0.17;0.17;;;;;;;;;;5055256;28;20194;-60
2021/01/18 17:08:43;;;;;;;0.00;0.00;;;;;;;;;;5056362;28;20331;-60
2021/01/18 17:11:14;;;;;;;0.70;0.70;;;;;;;;;;5058476;28;20243;-63
2021/01/18 17:13:41;;;;;;;0.10;0.10;;;;;;;;;;5050966;28;20591;-62
2021/01/18 17:16:07;;;;;;;1.30;1.17;;;;;;;;;;5063542;28;20181;-62
2021/01/18 17:18:39;;;;;;;0.00;0.00;;;;;;;;;;5059286;28;20268;-62
2021/01/18 17:21:10;;;;;;;1.03;0.33;;;;;;;;;;5053789;28;20196;-65
2021/01/18 17:23:39;;;;;;;0.10;0.10;;;;;;;;;;5053763;28;20189;-62
2021/01/18 17:26:06;;;;;;;0.00;0.00;;;;;;;;;;5051248;28;20625;-61
2021/01/18 17:28:32;;;;;;;0.10;0.10;;;;;;;;;;5054536;28;20217;-61
2021/01/18 17:31:00;;;;;;;0.10;0.10;;;;;;;;;;5055131;28;20232;-63
2021/01/18 17:33:26;;;;;;;0.10;0.10;;;;;;;;;;5056693;28;20182;-64
2021/01/18 17:35:53;;;;;;;0.10;0.10;;;;;;;;;;5056316;28;20193;-64
2021/01/18 17:38:20;;;;;;;0.00;0.00;;;;;;;;;;5052095;28;20185;-62
2021/01/18 17:40:47;;;;;;;0.40;0.27;;;;;;;;;;5059508;28;20187;-63
2021/01/18 17:43:14;;;;;;;0.10;0.10;;;;;;;;;;5054276;28;20217;-62
2021/01/18 17:45:40;;;;;;;0.00;0.00;;;;;;;;;;5054470;28;20180;-62
2021/01/18 17:48:08;;;;;;;0.00;0.00;;;;;;;;;;5054651;28;20215;-62
2021/01/18 17:50:34;;;;;;;0.10;0.10;;;;;;;;;;5062436;28;20183;-62
2021/01/18 17:53:01;;;;;;;0.00;0.00;;;;;;;;;;5057800;28;20191;-63
2021/01/18 17:55:28;;;;;;;0.67;0.67;;;;;;;;;;5053203;28;20185;-63
2021/01/18 17:57:57;;;;;;;0.07;0.07;;;;;;;;;;5056320;28;20549;-62
2021/01/18 18:00:24;;;;;;;0.10;0.10;;;;;;;;;;5052324;28;20171;-64
2021/01/18 18:02:51;;;;;;;3.53;1.43;;;;;;;;;;5051246;28;20258;-61
2021/01/18 18:05:19;;;;;;;1.23;0.40;;;;;;;;;;5056379;28;20186;-62
2021/01/18 18:07:45;;;;;;;0.10;0.10;;;;;;;;;;5047962;28;20235;-65
2021/01/18 18:10:12;;;;;;;0.40;0.40;;;;;;;;;;5054029;28;20208;-65
2021/01/18 18:12:39;;;;;;;4.60;0.27;;;;;;;;;;5060370;28;20183;-62
2021/01/18 18:15:06;;;;;;;0.13;0.10;;;;;;;;;;5054893;28;20193;-62
2021/01/18 18:17:33;;;;;;;1.07;0.10;;;;;;;;;;5059242;28;20179;-64
2021/01/18 18:19:59;;;;;;;0.10;0.10;;;;;;;;;;5061601;28;20691;-61
2021/01/18 18:22:30;;;;;;;0.20;0.20;;;;;;;;;;5059843;28;20217;-62
2021/01/18 18:24:57;;;;;;;0.57;0.27;;;;;;;;;;5059195;28;20269;-64
2021/01/18 18:27:24;;;;;;;0.60;0.60;;;;;;;;;;5049278;28;20215;-63
2021/01/18 18:29:51;;;;;;;0.00;0.00;;;;;;;;;;5068897;28;20209;-62
2021/01/18 18:32:18;;;;;;;1.13;0.90;;;;;;;;;;5054725;28;20195;-65
2021/01/18 18:34:46;;;;;;;2.50;1.40;;;;;;;;;;5052847;28;20758;-62
2021/01/18 18:37:13;;;;;;;0.10;0.10;;;;;;;;;;5053877;28;20601;-63
2021/01/18 18:39:40;;;;;;;0.97;0.97;;;;;;;;;;5054277;28;20184;-63
2021/01/18 18:42:07;;;;;;;0.10;0.10;;;;;;;;;;5051525;28;20279;-61
2021/01/18 18:44:34;;;;;;;0.00;0.00;;;;;;;;;;5051222;28;20190;-63
2021/01/18 18:47:00;;;;;;;0.57;0.30;;;;;;;;;;5044952;28;20646;-62
2021/01/18 18:49:30;;;;;;;0.00;0.00;;;;;;;;;;5042545;28;20237;-62
2021/01/18 18:51:58;;;;;;;16.03;1.57;;;;;;;;;;5054254;28;20174;-62
2021/01/18 18:54:32;;;;;;;0.03;0.03;;;;;;;;;;5053301;28;20205;-61
2021/01/18 18:56:59;;;;;;;0.10;0.10;;;;;;;;;;5055175;28;20187;-62
2021/01/18 18:59:29;;;;;;;0.07;0.07;;;;;;;;;;5057515;28;20194;-63
2021/01/18 19:01:56;;;;;;;0.50;0.50;;;;;;;;;;5063934;28;20180;-63
2021/01/18 19:04:25;;;;;;;0.43;0.43;;;;;;;;;;5064519;28;20187;-62
2021/01/18 19:06:52;;;;;;;0.40;0.40;;;;;;;;;;5053581;28;20789;-62
2021/01/18 19:09:19;;;;;;;0.03;0.03;;;;;;;;;;5058079;28;20510;-64
2021/01/18 19:11:46;;;;;;;0.10;0.10;;;;;;;;;;5065500;28;20190;-62
2021/01/18 19:14:17;;;;;;;0.00;0.00;;;;;;;;;;5061972;28;20183;-62
2021/01/18 19:16:43;;;;;;;0.00;0.00;;;;;;;;;;5056721;28;20180;-64
2021/01/18 19:19:10;;;;;;;0.00;0.00;;;;;;;;;;5057271;28;20175;-63
2021/01/18 19:21:37;;;;;;;0.50;0.20;;;;;;;;;;5058447;28;20183;-63
2021/01/18 19:24:04;;;;;;;1.27;1.17;;;;;;;;;;5062360;28;20188;-63
2021/01/18 19:26:31;;;;;;;0.00;0.00;;;;;;;;;;5052210;28;20209;-63
2021/01/18 19:28:58;;;;;;;0.00;0.00;;;;;;;;;;5058456;28;20683;-62
2021/01/18 19:31:24;;;;;;;0.00;0.00;;;;;;;;;;5056131;28;20167;-63
2021/01/18 19:33:52;;;;;;;0.77;0.77;;;;;;;;;;5059754;28;20187;-62
2021/01/18 19:36:24;;;;;;;0.67;0.67;;;;;;;;;;5058741;28;20186;-62
2021/01/18 19:38:51;;;;;;;1.73;1.20;;;;;;;;;;5058010;28;20263;-64
2021/01/18 19:41:25;;;;;;;3.40;3.03;;;;;;;;;;5055234;28;20178;-63
2021/01/18 19:43:52;;;;;;;1.03;0.47;;;;;;;;;;5057807;28;20844;-61
2021/01/18 19:46:23;;;;;;;0.00;0.00;;;;;;;;;;5059128;28;20185;-63
2021/01/18 19:48:50;;;;;;;0.13;0.13;;;;;;;;;;5053761;28;21269;-63
2021/01/18 19:51:17;;;;;;;0.30;0.30;;;;;;;;;;5058448;28;20172;-61
2021/01/18 19:53:44;;;;;;;8.80;1.87;;;;;;;;;;5060541;28;20376;-61
2021/01/18 19:56:11;;;;;;;0.00;0.00;;;;;;;;;;5059216;28;20394;-62
2021/01/18 19:58:38;;;;;;;0.20;0.20;;;;;;;;;;5055179;28;20746;-61
2021/01/18 20:01:05;;;;;;;0.00;0.00;;;;;;;;;;5057567;28;20262;-61
2021/01/18 20:03:31;;;;;;;0.20;0.20;;;;;;;;;;5056699;28;20171;-60
2021/01/18 20:05:59;;;;;;;0.37;0.23;;;;;;;;;;5058762;28;20196;-61
2021/01/18 20:08:26;;;;;;;0.50;0.50;;;;;;;;;;5056922;28;20616;-61
2021/01/18 20:10:52;;;;;;;0.10;0.10;;;;;;;;;;5056977;28;20178;-61
2021/01/18 20:13:19;;;;;;;0.10;0.10;;;;;;;;;;5057506;28;20186;-63
2021/01/18 20:15:45;;;;;;;0.50;0.50;;;;;;;;;;5060144;28;20245;-61
2021/01/18 20:18:12;;;;;;;4.00;0.73;;;;;;;;;;5057321;28;20195;-62
2021/01/18 20:20:38;;;;;;;0.97;0.53;;;;;;;;;;5058131;28;20187;-62
2021/01/18 20:23:05;;;;;;;5.07;3.63;;;;;;;;;;5053869;28;20651;-61
2021/01/18 20:25:44;;;;;;;4.20;1.67;;;;;;;;;;5051587;28;20399;-60
2021/01/18 20:28:10;;;;;;;0.10;0.10;;;;;;;;;;5054862;28;20259;-61
2021/01/18 20:30:37;;;;;;;2.10;0.90;;;;;;;;;;5059052;28;20239;-62
2021/01/18 20:33:05;;;;;;;2.37;1.97;;;;;;;;;;5052571;28;20206;-61
2021/01/18 20:35:32;;;;;;;0.80;0.43;;;;;;;;;;5058815;28;20171;-60
2021/01/18 20:37:59;;;;;;;0.23;0.23;;;;;;;;;;5059275;28;20187;-61
2021/01/18 20:40:26;;;;;;;7.87;1.60;;;;;;;;;;5052593;28;20188;-60
2021/01/18 20:42:53;;;;;;;1.23;1.13;;;;;;;;;;5055895;28;20233;-61
2021/01/18 20:45:21;;;;;;;0.10;0.10;;;;;;;;;;5055172;28;20181;-61
2021/01/18 20:47:49;;;;;;;0.30;0.17;;;;;;;;;;5059313;28;20266;-62
2021/01/18 20:50:17;;;;;;;0.10;0.10;;;;;;;;;;5056797;28;20226;-60
2021/01/18 20:52:43;;;;;;;0.10;0.10;;;;;;;;;;5056016;28;20179;-62
2021/01/18 20:55:10;;;;;;;0.20;0.20;;;;;;;;;;5056602;28;20183;-63
2021/01/18 20:57:37;;;;;;;0.37;0.37;;;;;;;;;;5055504;28;20273;-61
2021/01/18 21:00:08;;;;;;;0.10;0.10;;;;;;;;;;5056945;28;20658;-61
2021/01/18 21:02:35;;;;;;;0.53;0.53;;;;;;;;;;5054813;28;20176;-61
2021/01/18 21:05:04;;;;;;;0.30;0.20;;;;;;;;;;5058212;28;20643;-60
2021/01/18 21:07:31;;;;;;;2.57;2.47;;;;;;;;;;5057593;28;20248;-61
2021/01/18 21:09:58;;;;;;;0.00;0.00;;;;;;;;;;5056180;28;20191;-61
2021/01/18 21:12:25;;;;;;;0.00;0.00;;;;;;;;;;5055456;28;20218;-60
2021/01/18 21:14:52;;;;;;;0.00;0.00;;;;;;;;;;5055097;28;20233;-61
2021/01/18 21:17:18;;;;;;;0.00;0.00;;;;;;;;;;5055701;28;20195;-62
2021/01/18 21:19:45;;;;;;;0.53;0.53;;;;;;;;;;5052308;28;20695;-61
2021/01/18 21:22:12;;;;;;;0.10;0.10;;;;;;;;;;5055480;28;20276;-60
2021/01/18 21:24:39;;;;;;;2.33;0.40;;;;;;;;;;5053811;28;20178;-63
2021/01/18 21:27:05;;;;;;;0.20;0.20;;;;;;;;;;5048138;28;20187;-61
2021/01/18 21:29:32;;;;;;;0.30;0.30;;;;;;;;;;5043657;28;20290;-63
2021/01/18 21:31:59;;;;;;;10.93;0.70;;;;;;;;;;5055296;28;20190;-64
2021/01/18 21:34:26;;;;;;;0.10;0.10;;;;;;;;;;5051309;28;20194;-62
2021/01/18 21:36:56;;;;;;;2.57;2.23;;;;;;;;;;5056037;28;20183;-63
2021/01/18 21:39:23;;;;;;;0.20;0.20;;;;;;;;;;5054191;28;20170;-63
2021/01/18 21:41:51;;;;;;;0.47;0.47;;;;;;;;;;5054745;28;20185;-64
2021/01/18 21:44:19;;;;;;;0.10;0.10;;;;;;;;;;5050280;28;20187;-62
2021/01/18 21:46:46;;;;;;;4.23;0.63;;;;;;;;;;5055572;28;20179;-61
2021/01/18 21:49:13;;;;;;;1.13;1.13;;;;;;;;;;5057617;28;20236;-62
2021/01/18 21:51:40;;;;;;;2.20;0.17;;;;;;;;;;5057009;28;20186;-62
2021/01/18 21:54:08;;;;;;;0.10;0.10;;;;;;;;;;5056646;28;20276;-62
2021/01/18 21:56:35;;;;;;;0.00;0.00;;;;;;;;;;5055798;28;20186;-62
2021/01/18 21:59:02;;;;;;;0.63;0.20;;;;;;;;;;5049399;28;20195;-61
2021/01/18 22:01:29;;;;;;;1.60;0.63;;;;;;;;;;5051396;28;20196;-64
2021/01/18 22:03:56;;;;;;;2.00;0.20;;;;;;;;;;5055410;28;20181;-62
2021/01/18 22:06:25;;;;;;;5.10;0.77;;;;;;;;;;5055581;28;20185;-60
2021/01/18 22:08:52;;;;;;;0.00;0.00;;;;;;;;;;5053931;28;20746;-63
2021/01/18 22:11:20;;;;;;;0.00;0.00;;;;;;;;;;5048095;28;20190;-58
2021/01/18 22:13:47;;;;;;;2.57;0.73;;;;;;;;;;5057351;28;20184;-60
2021/01/18 22:16:20;;;;;;;0.03;0.00;;;;;;;;;;5061392;28;20185;-61
2021/01/18 22:18:47;;;;;;;0.03;0.03;;;;;;;;;;5050838;28;20188;-63
2021/01/18 22:21:13;;;;;;;3.50;3.30;;;;;;;;;;5047141;28;20528;-63
2021/01/18 22:23:40;;;;;;;0.00;0.00;;;;;;;;;;5049814;28;20172;-62
2021/01/18 22:26:07;;;;;;;0.00;0.00;;;;;;;;;;5052976;28;20195;-62
2021/01/18 22:28:33;;;;;;;0.00;0.00;;;;;;;;;;5055840;28;20340;-62
2021/01/18 22:31:00;;;;;;;0.00;0.00;;;;;;;;;;5052097;28;20186;-64
2021/01/18 22:33:26;;;;;;;0.00;0.00;;;;;;;;;;5049786;28;20174;-59
2021/01/18 22:35:53;;;;;;;0.00;0.00;;;;;;;;;;5060182;28;20302;-61
2021/01/18 22:38:19;;;;;;;9.90;0.63;;;;;;;;;;5060437;28;20187;-62
2021/01/18 22:40:46;;;;;;;0.30;0.30;;;;;;;;;;5058975;28;20840;-60
2021/01/18 22:43:12;;;;;;;0.20;0.20;;;;;;;;;;5047064;28;20557;-63
2021/01/18 22:45:39;;;;;;;1.77;0.40;;;;;;;;;;5046644;28;20180;-62
2021/01/18 22:48:06;;;;;;;0.50;0.50;;;;;;;;;;5047669;28;20213;-62
2021/01/18 22:50:33;;;;;;;0.63;0.17;;;;;;;;;;5058004;28;20265;-63
2021/01/18 22:53:00;;;;;;;0.10;0.10;;;;;;;;;;5059557;28;20281;-63
2021/01/18 22:55:27;;;;;;;0.20;0.20;;;;;;;;;;5058931;28;20178;-62
2021/01/18 22:57:54;;;;;;;0.00;0.00;;;;;;;;;;5055204;28;20654;-63
2021/01/18 23:00:23;;;;;;;2.43;0.47;;;;;;;;;;5058090;28;20692;-61
2021/01/18 23:02:50;;;;;;;2.73;0.30;;;;;;;;;;5055703;28;20217;-60
2021/01/18 23:05:20;;;;;;;2.40;0.30;;;;;;;;;;5055593;28;20184;-61
2021/01/18 23:07:48;;;;;;;0.53;0.40;;;;;;;;;;5062211;28;20239;-62
2021/01/18 23:10:17;;;;;;;0.10;0.10;;;;;;;;;;5053331;28;20227;-62
2021/01/18 23:12:43;;;;;;;0.73;0.23;;;;;;;;;;5057943;28;20659;-61
2021/01/18 23:15:12;;;;;;;13.60;0.77;;;;;;;;;;5051617;28;20193;-62
2021/01/18 23:17:40;;;;;;;1.33;0.20;;;;;;;;;;5054253;28;20217;-62
2021/01/18 23:20:11;;;;;;;48.50;3.07;;;;;;;;;;5057836;28;20186;-61
2021/01/18 23:22:39;;;;;;;0.17;0.17;;;;;;;;;;5057737;28;20179;-61
2021/01/18 23:25:10;;;;;;;2.83;0.50;;;;;;;;;;5057243;28;20194;-61
2021/01/18 23:27:37;;;;;;;0.20;0.20;;;;;;;;;;5060914;28;20217;-61
2021/01/18 23:30:05;;;;;;;0.47;0.40;;;;;;;;;;5050989;28;20217;-61
2021/01/18 23:32:32;;;;;;;0.20;0.20;;;;;;;;;;5054180;28;20185;-60
2021/01/18 23:34:59;;;;;;;0.60;0.30;;;;;;;;;;5056316;28;20561;-61
2021/01/18 23:37:26;;;;;;;0.00;0.00;;;;;;;;;;5058976;28;20190;-61
2021/01/18 23:39:53;;;;;;;0.30;0.30;;;;;;;;;;5061346;28;20179;-62
2021/01/18 23:42:20;;;;;;;0.00;0.00;;;;;;;;;;5056845;28;20256;-62
2021/01/18 23:44:46;;;;;;;0.57;0.30;;;;;;;;;;5060650;28;20178;-60
2021/01/18 23:47:13;;;;;;;0.90;0.90;;;;;;;;;;5058370;28;20180;-62
2021/01/18 23:49:39;;;;;;;0.10;0.10;;;;;;;;;;5058113;28;20197;-63
2021/01/18 23:52:06;;;;;;;0.10;0.10;;;;;;;;;;5059582;28;20181;-61
2021/01/18 23:54:33;;;;;;;0.10;0.10;;;;;;;;;;5058676;28;20187;-62
2021/01/18 23:56:59;;;;;;;0.00;0.00;;;;;;;;;;5061973;28;20183;-63
2021/01/18 23:59:26;;;;;;;1.07;0.57;;;;;;;;;;5060673;28;20267;-62
